Atalanti — 5BYY2 — position and weather

sailwx.info

Track history (hours):
 
Tides and Currents Weather Stations Pressure Air Temp Water Temp Dewpoint Dewpoint Depression Visibility Wind Speed Wind Dir Waves Ship Positions

Atalanti

Last reported at 2016-Sep-28 16:32 UTC. Time now 2016-Sep-28 18:54 UTC.
Position N 53°20' E 007°12'.

Length 97 m; draft 4.3 m.

Type: Other ship. MMSI: 212279000.

Date/timePositionNaut miles runAvg speedWind from/ knotsBaromVisibWave heightAir tempDewpointWater temp
2016-Sep-28 16:32N 53°20' E 007°12'0 0.0
2016-Sep-28 15:32N 53°20' E 007°12'0 0.0
2016-Sep-28 12:29N 53°20' E 007°12'0 0.0
2016-Sep-28 08:32N 53°20' E 007°12'0 0.0
2016-Sep-28 03:29N 53°20' E 007°12'0 0.0
2016-Sep-28 02:29N 53°20' E 007°12'0 0.0
2016-Sep-28 01:32N 53°20' E 007°12'0 0.0
2016-Sep-27 23:32N 53°20' E 007°12'0 0.0
2016-Sep-27 19:32N 53°20' E 007°12'0 0.0
2016-Sep-27 14:32N 53°20' E 007°12'0 0.0
2016-Sep-27 13:26N 53°20' E 007°12'0 0.0
2016-Sep-27 10:32N 53°20' E 007°12'0 0.0
2016-Sep-27 00:32N 53°20' E 007°12'0 0.0
2016-Sep-26 20:32N 53°20' E 007°12'0 0.0
2016-Sep-26 19:32N 53°20' E 007°12'0 0.0
2016-Sep-26 15:32N 53°20' E 007°12'0 0.0
2016-Sep-26 13:32N 53°20' E 007°12'0 0.0
2016-Sep-26 11:32N 53°20' E 007°12'0 0.0
2016-Sep-26 08:32N 53°20' E 007°12'0 0.0
2016-Sep-26 02:32N 53°20' E 007°12'0 0.0
2016-Sep-26 01:32N 53°20' E 007°12'0 0.0
2016-Sep-26 00:32N 53°20' E 007°12'0 0.0
2016-Sep-25 21:29N 53°20' E 007°12'0 0.0
2016-Sep-25 17:33N 53°20' E 007°12'0 0.4
2016-Sep-25 16:33N 53°20' E 007°11'1 0.9
2016-Sep-25 15:33N 53°20' E 007°10'5 4.9
2016-Sep-25 14:33N 53°19' E 007°02'18 8.9
2016-Sep-25 12:33N 53°33' E 006°42'9 8.5
2016-Sep-25 11:33N 53°37' E 006°29'7 7.1
2016-Sep-25 10:33N 53°38' E 006°17'6 5.6
2016-Sep-25 09:33N 53°43' E 006°15'15 7.5
2016-Sep-25 07:33N 53°58' E 006°10'17 5.8
2016-Sep-25 04:32N 54°15' E 006°04'8 1.8
2016-Sep-25 00:22N 54°19' E 005°53'3 1.5
2016-Sep-24 22:14N 54°21' E 005°58'1 1.6
2016-Sep-24 21:22N 54°21' E 005°60'0 0.2
2016-Sep-24 19:28N 54°21' E 006°01'19 0.4
2016-Sep-23 01:11N 54°04' E 006°11'4 6.7
2016-Sep-23 00:33N 53°60' E 006°13'6 5.8
2016-Sep-22 23:33N 53°54' E 006°14'16 5.2
2016-Sep-22 20:33N 53°38' E 006°19'37 4.5
2016-Sep-22 12:31N 53°20' E 007°12'0 0.0
2016-Sep-22 04:31N 53°20' E 007°12'0 0.0
2016-Sep-22 03:31N 53°20' E 007°12'0 0.0
2016-Sep-22 00:31N 53°20' E 007°12'0 0.0
2016-Sep-21 23:28N 53°20' E 007°12'0 0.0
2016-Sep-21 22:25N 53°20' E 007°12'0 0.0
2016-Sep-21 16:28N 53°20' E 007°12'0 0.0
2016-Sep-21 09:31N 53°20' E 007°12'0 0.0
2016-Sep-21 08:28N 53°20' E 007°12'0 0.0
2016-Sep-21 03:19N 53°20' E 007°12'0 0.0
2016-Sep-21 02:13N 53°20' E 007°12'0 0.0
2016-Sep-20 17:28N 53°20' E 007°12'0 0.0
2016-Sep-20 14:28N 53°20' E 007°12'0 0.0
2016-Sep-20 13:22N 53°20' E 007°12'0 0.0
2016-Sep-20 10:31N 53°20' E 007°12'0 0.0
2016-Sep-20 08:31N 53°20' E 007°12'0 0.0
2016-Sep-20 07:31N 53°20' E 007°12'0 0.0
2016-Sep-20 06:31N 53°20' E 007°12'0 0.0
2016-Sep-19 23:31N 53°20' E 007°12'0 0.0
2016-Sep-19 19:28N 53°20' E 007°12'0 0.0
2016-Sep-19 18:31N 53°20' E 007°12'0 0.0
2016-Sep-19 16:04N 53°20' E 007°12'0 0.0
2016-Sep-19 14:31N 53°20' E 007°12'0 0.0
2016-Sep-19 13:16N 53°20' E 007°12'0 0.0
2016-Sep-19 12:31N 53°20' E 007°12'0 0.0
2016-Sep-19 11:25N 53°20' E 007°12'0 0.0
2016-Sep-19 09:31N 53°20' E 007°12'0 0.0
2016-Sep-19 07:22N 53°20' E 007°12'0 0.0
2016-Sep-19 06:31N 53°20' E 007°12'0 0.0
2016-Sep-19 03:22N 53°20' E 007°12'0 0.0
2016-Sep-19 02:28N 53°20' E 007°12'0 0.0
2016-Sep-19 00:31N 53°20' E 007°12'0 0.0
2016-Sep-18 19:28N 53°20' E 007°12'  
Track history (hours):
 
Tides and Currents Weather Stations Pressure Air Temp Water Temp Dewpoint Dewpoint Depression Visibility Wind Speed Wind Dir Waves Ship Positions

Atalanti

Last reported at 2016-Sep-28 16:32 UTC. Time now 2016-Sep-28 18:54 UTC.
Position N 53°20' E 007°12'.

Length 97 m; draft 4.3 m.

Type: Other ship. MMSI: 212279000.

Date/timePositionNaut miles runAvg speedWind from/ knotsBaromVisibWave heightAir tempDewpointWater temp
2016-Sep-28 16:32N 53°20' E 007°12'0 0.0
2016-Sep-28 15:32N 53°20' E 007°12'0 0.0
2016-Sep-28 12:29N 53°20' E 007°12'0 0.0
2016-Sep-28 08:32N 53°20' E 007°12'0 0.0
2016-Sep-28 03:29N 53°20' E 007°12'0 0.0
2016-Sep-28 02:29N 53°20' E 007°12'0 0.0
2016-Sep-28 01:32N 53°20' E 007°12'0 0.0
2016-Sep-27 23:32N 53°20' E 007°12'0 0.0
2016-Sep-27 19:32N 53°20' E 007°12'0 0.0
2016-Sep-27 14:32N 53°20' E 007°12'0 0.0
2016-Sep-27 13:26N 53°20' E 007°12'0 0.0
2016-Sep-27 10:32N 53°20' E 007°12'0 0.0
2016-Sep-27 00:32N 53°20' E 007°12'0 0.0
2016-Sep-26 20:32N 53°20' E 007°12'0 0.0
2016-Sep-26 19:32N 53°20' E 007°12'0 0.0
2016-Sep-26 15:32N 53°20' E 007°12'0 0.0
2016-Sep-26 13:32N 53°20' E 007°12'0 0.0
2016-Sep-26 11:32N 53°20' E 007°12'0 0.0
2016-Sep-26 08:32N 53°20' E 007°12'0 0.0
2016-Sep-26 02:32N 53°20' E 007°12'0 0.0
2016-Sep-26 01:32N 53°20' E 007°12'0 0.0
2016-Sep-26 00:32N 53°20' E 007°12'0 0.0
2016-Sep-25 21:29N 53°20' E 007°12'0 0.0
2016-Sep-25 17:33N 53°20' E 007°12'0 0.4
2016-Sep-25 16:33N 53°20' E 007°11'1 0.9
2016-Sep-25 15:33N 53°20' E 007°10'5 4.9
2016-Sep-25 14:33N 53°19' E 007°02'18 8.9
2016-Sep-25 12:33N 53°33' E 006°42'9 8.5
2016-Sep-25 11:33N 53°37' E 006°29'7 7.1
2016-Sep-25 10:33N 53°38' E 006°17'6 5.6
2016-Sep-25 09:33N 53°43' E 006°15'15 7.5
2016-Sep-25 07:33N 53°58' E 006°10'17 5.8
2016-Sep-25 04:32N 54°15' E 006°04'8 1.8
2016-Sep-25 00:22N 54°19' E 005°53'3 1.5
2016-Sep-24 22:14N 54°21' E 005°58'1 1.6
2016-Sep-24 21:22N 54°21' E 005°60'0 0.2
2016-Sep-24 19:28N 54°21' E 006°01'19 0.4
2016-Sep-23 01:11N 54°04' E 006°11'4 6.7
2016-Sep-23 00:33N 53°60' E 006°13'6 5.8
2016-Sep-22 23:33N 53°54' E 006°14'16 5.2
2016-Sep-22 20:33N 53°38' E 006°19'37 4.5
2016-Sep-22 12:31N 53°20' E 007°12'0 0.0
2016-Sep-22 04:31N 53°20' E 007°12'0 0.0
2016-Sep-22 03:31N 53°20' E 007°12'0 0.0
2016-Sep-22 00:31N 53°20' E 007°12'0 0.0
2016-Sep-21 23:28N 53°20' E 007°12'0 0.0
2016-Sep-21 22:25N 53°20' E 007°12'0 0.0
2016-Sep-21 16:28N 53°20' E 007°12'0 0.0
2016-Sep-21 09:31N 53°20' E 007°12'0 0.0
2016-Sep-21 08:28N 53°20' E 007°12'0 0.0
2016-Sep-21 03:19N 53°20' E 007°12'0 0.0
2016-Sep-21 02:13N 53°20' E 007°12'0 0.0
2016-Sep-20 17:28N 53°20' E 007°12'0 0.0
2016-Sep-20 14:28N 53°20' E 007°12'0 0.0
2016-Sep-20 13:22N 53°20' E 007°12'0 0.0
2016-Sep-20 10:31N 53°20' E 007°12'0 0.0
2016-Sep-20 08:31N 53°20' E 007°12'0 0.0
2016-Sep-20 07:31N 53°20' E 007°12'0 0.0
2016-Sep-20 06:31N 53°20' E 007°12'0 0.0
2016-Sep-19 23:31N 53°20' E 007°12'0 0.0
2016-Sep-19 19:28N 53°20' E 007°12'0 0.0
2016-Sep-19 18:31N 53°20' E 007°12'0 0.0
2016-Sep-19 16:04N 53°20' E 007°12'0 0.0
2016-Sep-19 14:31N 53°20' E 007°12'0 0.0
2016-Sep-19 13:16N 53°20' E 007°12'0 0.0
2016-Sep-19 12:31N 53°20' E 007°12'0 0.0
2016-Sep-19 11:25N 53°20' E 007°12'0 0.0
2016-Sep-19 09:31N 53°20' E 007°12'0 0.0
2016-Sep-19 07:22N 53°20' E 007°12'0 0.0
2016-Sep-19 06:31N 53°20' E 007°12'0 0.0
2016-Sep-19 03:22N 53°20' E 007°12'0 0.0
2016-Sep-19 02:28N 53°20' E 007°12'0 0.0
2016-Sep-19 00:31N 53°20' E 007°12'0 0.0
2016-Sep-18 19:28N 53°20' E 007°12'  

Dump ship's entire track history